Independence, KS

6:11 AM CST on February 19, 2017 (GMT -0600)
Independence Municipal | | Change Station
Active Advisory: Dense Fog Advisory Active Notice: Public Information Statement

Elev 823 ft 37.16 °N, 95.78 °W | Updated 16 minutes ago

Fog
Fog
37 °F
Feels Like 34 °F
N
5
Wind Variable Wind from NE

Today
High -- | Low -- °F
--% Chance of Precip.
Yesterday
High -- | Low -- °F
Precip. -- in
Pressure 29.93 in
Visibility 0.5 miles
Clouds Overcast 100 ft
Windchill 34 °F
Dew Point 37 °F
Humidity 100%
Rainfall 0.00 in
Snow Depth Not available.
7:06 AM 6:07 PM
Last Quarter, 44% visible
METAR KIDP 191155Z AUTO 05004KT 1/2SM FG OVC001 03/03 A2993 RMK AO2
Pressure 29.93 in
Visibility 0.5 miles
Clouds Overcast 100 ft
Windchill 34 °F
Dew Point 37 °F
Humidity 100%
Rainfall 0.00 in
Snow Depth Not available.
7:06 AM 6:07 PM
Last Quarter, 44% visible
METAR KIDP 191155Z AUTO 05004KT 1/2SM FG OVC001 03/03 A2993 RMK AO2

Get Your Daily Forecast Email!

Thanks for signing up!

Be on the lookout for a verification email in your inbox.

You'll start receiving the daily forecast at 8 AM.

×

10-Day Weather Forecast

Almanac

Astronomy

Feb. 19, 2017 Rise Set
Actual Time
Civil Twilight
Nautical Twilight
Astronomical Twilight
Moon
Length of Visible Light
Length of Day
Tomorrow will be .
, % of the Moon is Illuminated

Today's Extremes

State Highs State Lows

Community

WunderPhotos

Upload Photos

1,962,540 photos uploaded!

WunderBlog® & News

Nearby

Air Quality

  Air Quality AQ Index Pollutant
Not available.

Snow Depth

Station Depth Elevation

Earthquake Activity

City Distance Mag. Time & Date
Minimum magnitude displayed is 2.5.

Coastal Water Temperatures

Place Temperature

Stations

Nearby Weather Stations

Station Location Temp. Windchill Dew Point Humidity Wind Precip. Elev Updated Type
                   

Watches & Warnings

Dense Fog Advisory
Issued: 5:29 AM CST Feb. 19, 2017 – National Weather Service

... Dense fog advisory remains in effect until 11 am CST this
morning...

* visibilities... one-quarter mile or less at times.

* Timing... through mid to late morning.

Precautionary/preparedness actions...

A dense fog advisory means visibilities will frequently be
reduced to less than one quarter mile. If driving... slow down.
Use your headlights and leave plenty of distance ahead of you.